KCUB/CUB METAR and TAF weather

Enter ICAO airport designator
Station Type Date Time Source
KCUB METAR 2021/09/28 16:53 UTC NOAA

KCUB 281653Z AUTO 25006KT 10SM CLR 29/16 A3003 RMK AO2 SLP167 T02890156


Station Type Date Time Source
KCUB Decoded METAR 2021/09/28 16:53 UTC NOAA

OWENS DOWNTOWN AIRPORT, SC, United States (KCUB) 33-58N 081-00W 56M
Sep 28, 2021 - 12:53 PM EDT / 2021.09.28 1653 UTC
Wind: from the WSW (250 degrees) at 7 MPH (6 KT):0
Visibility: 10 mile(s):0
Sky conditions: clear
Temperature: 84.0 F (28.9 C)
Dew Point: 60.1 F (15.6 C)
Relative Humidity: 44%
Pressure (altimeter): 30.03 in. Hg (1016 hPa)
ob: KCUB 281653Z AUTO 25006KT 10SM CLR 29/16 A3003 RMK AO2 SLP167 T02890156
cycle: 17

Station Type Date Time Source
KCUB TAF 2021/09/28 15:51 UTC NOAA

TAF
AMD KCUB 281448Z 2815/2912 23006KT P6SM SKC
FM282300 00000KT P6SM SKC

Example: see airport list